sensor_id;sensor_type;location;lat;lon;timestamp;P1;durP1;ratioP1;P2;durP2;ratioP2
64174;SDS011;50469;50.438;-119.202;2023-10-09T00:00:19;332.65;;;78.20;;
64174;SDS011;50469;50.438;-119.202;2023-10-09T00:02:48;454.95;;;148.57;;
64174;SDS011;50469;50.438;-119.202;2023-10-09T00:05:16;38.28;;;25.77;;
64174;SDS011;50469;50.438;-119.202;2023-10-09T00:07:44;188.85;;;39.90;;
64174;SDS011;50469;50.438;-119.202;2023-10-09T00:10:13;236.25;;;214.45;;
64174;SDS011;50469;50.438;-119.202;2023-10-09T00:12:42;8.55;;;2.45;;
64174;SDS011;50469;50.438;-119.202;2023-10-09T00:15:10;167.27;;;87.13;;
64174;SDS011;50469;50.438;-119.202;2023-10-09T00:17:38;592.15;;;211.85;;
64174;SDS011;50469;50.438;-119.202;2023-10-09T00:20:07;220.10;;;113.15;;
64174;SDS011;50469;50.438;-119.202;2023-10-09T00:22:36;30.33;;;27.40;;
64174;SDS011;50469;50.438;-119.202;2023-10-09T00:25:04;5.88;;;2.30;;
64174;SDS011;50469;50.438;-119.202;2023-10-09T00:27:39;17.40;;;16.02;;
64174;SDS011;50469;50.438;-119.202;2023-10-09T00:30:11;543.65;;;212.10;;
64174;SDS011;50469;50.438;-119.202;2023-10-09T00:32:40;1805.90;;;365.17;;
64174;SDS011;50469;50.438;-119.202;2023-10-09T00:35:09;12.05;;;3.10;;
64174;SDS011;50469;50.438;-119.202;2023-10-09T00:37:37;7.65;;;6.85;;
64174;SDS011;50469;50.438;-119.202;2023-10-09T00:40:05;11.88;;;5.80;;
64174;SDS011;50469;50.438;-119.202;2023-10-09T00:42:37;7.85;;;5.28;;
64174;SDS011;50469;50.438;-119.202;2023-10-09T00:45:06;7.78;;;3.15;;
64174;SDS011;50469;50.438;-119.202;2023-10-09T00:47:35;21.77;;;12.93;;
64174;SDS011;50469;50.438;-119.202;2023-10-09T00:50:04;6.78;;;2.65;;
64174;SDS011;50469;50.438;-119.202;2023-10-09T00:52:37;9.57;;;2.63;;
64174;SDS011;50469;50.438;-119.202;2023-10-09T00:55:07;6.90;;;2.70;;
64174;SDS011;50469;50.438;-119.202;2023-10-09T00:57:43;12.80;;;3.08;;
64174;SDS011;50469;50.438;-119.202;2023-10-09T01:00:13;10.60;;;2.42;;
64174;SDS011;50469;50.438;-119.202;2023-10-09T01:02:45;7.03;;;2.45;;
64174;SDS011;50469;50.438;-119.202;2023-10-09T01:05:16;1999.90;;;999.90;;
64174;SDS011;50469;50.438;-119.202;2023-10-09T01:07:45;1999.90;;;999.90;;
64174;SDS011;50469;50.438;-119.202;2023-10-09T01:10:15;1999.90;;;999.90;;
64174;SDS011;50469;50.438;-119.202;2023-10-09T01:12:43;1999.90;;;999.90;;
64174;SDS011;50469;50.438;-119.202;2023-10-09T01:15:11;1999.90;;;999.90;;
64174;SDS011;50469;50.438;-119.202;2023-10-09T01:17:39;1999.90;;;999.90;;
64174;SDS011;50469;50.438;-119.202;2023-10-09T01:20:08;1999.90;;;999.90;;
64174;SDS011;50469;50.438;-119.202;2023-10-09T01:22:36;1999.90;;;999.90;;
64174;SDS011;50469;50.438;-119.202;2023-10-09T01:25:05;35.25;;;32.75;;
64174;SDS011;50469;50.438;-119.202;2023-10-09T01:27:36;74.97;;;69.28;;
64174;SDS011;50469;50.438;-119.202;2023-10-09T01:30:06;572.30;;;316.00;;
64174;SDS011;50469;50.438;-119.202;2023-10-09T01:32:34;1999.90;;;999.90;;
64174;SDS011;50469;50.438;-119.202;2023-10-09T01:35:03;1999.90;;;999.90;;
64174;SDS011;50469;50.438;-119.202;2023-10-09T01:37:32;1999.90;;;999.90;;
64174;SDS011;50469;50.438;-119.202;2023-10-09T01:40:00;1999.90;;;999.90;;
64174;SDS011;50469;50.438;-119.202;2023-10-09T01:42:30;1999.90;;;999.90;;
64174;SDS011;50469;50.438;-119.202;2023-10-09T01:44:58;10.90;;;9.90;;
64174;SDS011;50469;50.438;-119.202;2023-10-09T01:47:27;7.68;;;6.50;;
64174;SDS011;50469;50.438;-119.202;2023-10-09T01:49:55;6.05;;;5.45;;
64174;SDS011;50469;50.438;-119.202;2023-10-09T01:52:26;13.15;;;6.32;;
64174;SDS011;50469;50.438;-119.202;2023-10-09T01:54:54;12.27;;;5.57;;
64174;SDS011;50469;50.438;-119.202;2023-10-09T01:57:23;21.15;;;6.90;;
64174;SDS011;50469;50.438;-119.202;2023-10-09T01:59:51;18.65;;;6.18;;
64174;SDS011;50469;50.438;-119.202;2023-10-09T02:02:21;16.98;;;7.47;;
64174;SDS011;50469;50.438;-119.202;2023-10-09T02:04:51;12.23;;;8.27;;
64174;SDS011;50469;50.438;-119.202;2023-10-09T02:07:32;18.77;;;5.97;;
64174;SDS011;50469;50.438;-119.202;2023-10-09T02:10:03;1999.90;;;999.90;;
64174;SDS011;50469;50.438;-119.202;2023-10-09T02:12:32;2.40;;;1.65;;
64174;SDS011;50469;50.438;-119.202;2023-10-09T02:15:01;0.88;;;0.85;;
64174;SDS011;50469;50.438;-119.202;2023-10-09T02:17:30;19.17;;;4.18;;
64174;SDS011;50469;50.438;-119.202;2023-10-09T02:19:58;7.82;;;3.92;;
64174;SDS011;50469;50.438;-119.202;2023-10-09T02:22:30;15.35;;;3.67;;
64174;SDS011;50469;50.438;-119.202;2023-10-09T02:24:58;12.73;;;4.13;;
64174;SDS011;50469;50.438;-119.202;2023-10-09T02:27:26;14.63;;;4.03;;
64174;SDS011;50469;50.438;-119.202;2023-10-09T02:29:55;12.98;;;4.00;;
64174;SDS011;50469;50.438;-119.202;2023-10-09T02:32:23;14.25;;;4.20;;
64174;SDS011;50469;50.438;-119.202;2023-10-09T02:34:51;14.13;;;4.70;;
64174;SDS011;50469;50.438;-119.202;2023-10-09T02:37:20;11.85;;;3.97;;
64174;SDS011;50469;50.438;-119.202;2023-10-09T02:39:49;7.22;;;3.60;;
64174;SDS011;50469;50.438;-119.202;2023-10-09T02:42:18;23.15;;;6.93;;
64174;SDS011;50469;50.438;-119.202;2023-10-09T02:44:47;20.25;;;4.95;;
64174;SDS011;50469;50.438;-119.202;2023-10-09T02:47:15;11.93;;;4.65;;
64174;SDS011;50469;50.438;-119.202;2023-10-09T02:49:44;9.50;;;4.85;;
64174;SDS011;50469;50.438;-119.202;2023-10-09T02:52:13;18.48;;;6.60;;
64174;SDS011;50469;50.438;-119.202;2023-10-09T02:54:41;19.27;;;6.22;;
64174;SDS011;50469;50.438;-119.202;2023-10-09T02:57:09;19.75;;;6.47;;
64174;SDS011;50469;50.438;-119.202;2023-10-09T02:59:38;16.02;;;6.43;;
64174;SDS011;50469;50.438;-119.202;2023-10-09T03:02:06;16.83;;;5.35;;
64174;SDS011;50469;50.438;-119.202;2023-10-09T03:04:35;15.85;;;6.32;;
64174;SDS011;50469;50.438;-119.202;2023-10-09T03:07:03;30.15;;;6.38;;
64174;SDS011;50469;50.438;-119.202;2023-10-09T03:09:32;14.45;;;5.82;;
64174;SDS011;50469;50.438;-119.202;2023-10-09T03:12:03;24.55;;;7.13;;
64174;SDS011;50469;50.438;-119.202;2023-10-09T03:14:32;29.73;;;9.73;;
64174;SDS011;50469;50.438;-119.202;2023-10-09T03:17:02;16.65;;;8.60;;
64174;SDS011;50469;50.438;-119.202;2023-10-09T03:19:33;25.13;;;8.50;;
64174;SDS011;50469;50.438;-119.202;2023-10-09T03:22:02;22.88;;;8.50;;
64174;SDS011;50469;50.438;-119.202;2023-10-09T03:24:33;21.48;;;7.18;;
64174;SDS011;50469;50.438;-119.202;2023-10-09T03:27:01;18.88;;;7.15;;
64174;SDS011;50469;50.438;-119.202;2023-10-09T03:29:31;19.60;;;5.68;;
64174;SDS011;50469;50.438;-119.202;2023-10-09T03:31:59;8.73;;;4.32;;
64174;SDS011;50469;50.438;-119.202;2023-10-09T03:34:28;31.15;;;5.45;;
64174;SDS011;50469;50.438;-119.202;2023-10-09T03:36:56;29.70;;;4.63;;
64174;SDS011;50469;50.438;-119.202;2023-10-09T03:39:24;26.20;;;4.60;;
64174;SDS011;50469;50.438;-119.202;2023-10-09T03:41:53;13.60;;;4.85;;
64174;SDS011;50469;50.438;-119.202;2023-10-09T03:44:22;21.25;;;5.15;;
64174;SDS011;50469;50.438;-119.202;2023-10-09T03:46:50;17.05;;;5.78;;
64174;SDS011;50469;50.438;-119.202;2023-10-09T03:49:18;16.80;;;6.47;;
64174;SDS011;50469;50.438;-119.202;2023-10-09T03:51:46;12.52;;;5.53;;
64174;SDS011;50469;50.438;-119.202;2023-10-09T03:54:15;24.42;;;6.20;;
64174;SDS011;50469;50.438;-119.202;2023-10-09T03:56:44;14.57;;;5.40;;
64174;SDS011;50469;50.438;-119.202;2023-10-09T03:59:12;18.83;;;5.72;;
64174;SDS011;50469;50.438;-119.202;2023-10-09T04:01:40;17.17;;;5.45;;
64174;SDS011;50469;50.438;-119.202;2023-10-09T04:04:08;21.52;;;5.28;;
64174;SDS011;50469;50.438;-119.202;2023-10-09T04:06:36;13.15;;;5.50;;
64174;SDS011;50469;50.438;-119.202;2023-10-09T04:09:08;14.70;;;5.93;;
64174;SDS011;50469;50.438;-119.202;2023-10-09T04:11:38;23.75;;;5.53;;
64174;SDS011;50469;50.438;-119.202;2023-10-09T04:14:06;18.23;;;6.47;;
64174;SDS011;50469;50.438;-119.202;2023-10-09T04:16:34;27.33;;;6.25;;
64174;SDS011;50469;50.438;-119.202;2023-10-09T04:19:02;23.67;;;9.13;;
64174;SDS011;50469;50.438;-119.202;2023-10-09T04:21:31;25.30;;;7.03;;
64174;SDS011;50469;50.438;-119.202;2023-10-09T04:24:00;25.60;;;9.50;;
64174;SDS011;50469;50.438;-119.202;2023-10-09T04:26:29;22.90;;;8.50;;
64174;SDS011;50469;50.438;-119.202;2023-10-09T04:28:57;29.75;;;7.95;;
64174;SDS011;50469;50.438;-119.202;2023-10-09T04:31:26;25.30;;;4.65;;
64174;SDS011;50469;50.438;-119.202;2023-10-09T04:33:54;17.35;;;6.43;;
64174;SDS011;50469;50.438;-119.202;2023-10-09T04:36:22;17.25;;;5.70;;
64174;SDS011;50469;50.438;-119.202;2023-10-09T04:38:53;19.20;;;8.85;;
64174;SDS011;50469;50.438;-119.202;2023-10-09T04:41:22;25.98;;;9.40;;
64174;SDS011;50469;50.438;-119.202;2023-10-09T04:43:51;22.85;;;8.30;;
64174;SDS011;50469;50.438;-119.202;2023-10-09T04:46:19;30.30;;;7.82;;
64174;SDS011;50469;50.438;-119.202;2023-10-09T04:48:47;20.88;;;6.78;;
64174;SDS011;50469;50.438;-119.202;2023-10-09T04:51:16;25.33;;;7.30;;
64174;SDS011;50469;50.438;-119.202;2023-10-09T04:53:46;19.15;;;7.65;;
64174;SDS011;50469;50.438;-119.202;2023-10-09T04:56:15;13.13;;;7.45;;
64174;SDS011;50469;50.438;-119.202;2023-10-09T04:58:45;17.90;;;7.30;;
64174;SDS011;50469;50.438;-119.202;2023-10-09T05:01:13;20.98;;;8.50;;
64174;SDS011;50469;50.438;-119.202;2023-10-09T05:03:41;22.02;;;7.00;;
64174;SDS011;50469;50.438;-119.202;2023-10-09T05:06:09;42.35;;;8.00;;
64174;SDS011;50469;50.438;-119.202;2023-10-09T05:08:39;22.48;;;6.63;;
64174;SDS011;50469;50.438;-119.202;2023-10-09T05:11:07;30.38;;;7.30;;
64174;SDS011;50469;50.438;-119.202;2023-10-09T05:13:36;15.13;;;7.63;;
64174;SDS011;50469;50.438;-119.202;2023-10-09T05:16:11;23.38;;;6.55;;
64174;SDS011;50469;50.438;-119.202;2023-10-09T05:18:39;28.33;;;7.75;;
64174;SDS011;50469;50.438;-119.202;2023-10-09T05:21:08;17.73;;;6.97;;
64174;SDS011;50469;50.438;-119.202;2023-10-09T05:23:37;18.92;;;6.90;;
64174;SDS011;50469;50.438;-119.202;2023-10-09T05:26:05;16.00;;;8.40;;
64174;SDS011;50469;50.438;-119.202;2023-10-09T05:28:33;18.90;;;7.97;;
64174;SDS011;50469;50.438;-119.202;2023-10-09T05:31:01;17.58;;;7.45;;
64174;SDS011;50469;50.438;-119.202;2023-10-09T05:33:29;17.65;;;6.53;;
64174;SDS011;50469;50.438;-119.202;2023-10-09T05:35:59;36.72;;;7.93;;
64174;SDS011;50469;50.438;-119.202;2023-10-09T05:38:29;10.68;;;6.68;;
64174;SDS011;50469;50.438;-119.202;2023-10-09T05:40:57;24.33;;;7.88;;
64174;SDS011;50469;50.438;-119.202;2023-10-09T05:43:27;24.63;;;8.05;;
64174;SDS011;50469;50.438;-119.202;2023-10-09T05:45:56;20.80;;;7.22;;
64174;SDS011;50469;50.438;-119.202;2023-10-09T05:48:24;37.58;;;8.73;;
64174;SDS011;50469;50.438;-119.202;2023-10-09T05:50:52;21.55;;;8.77;;
64174;SDS011;50469;50.438;-119.202;2023-10-09T05:53:20;33.25;;;9.13;;
64174;SDS011;50469;50.438;-119.202;2023-10-09T05:55:49;17.10;;;9.23;;
64174;SDS011;50469;50.438;-119.202;2023-10-09T05:58:18;22.48;;;9.40;;
64174;SDS011;50469;50.438;-119.202;2023-10-09T06:00:46;25.85;;;9.60;;
64174;SDS011;50469;50.438;-119.202;2023-10-09T06:03:15;21.23;;;8.95;;
64174;SDS011;50469;50.438;-119.202;2023-10-09T06:05:43;19.80;;;6.90;;
64174;SDS011;50469;50.438;-119.202;2023-10-09T06:08:15;20.50;;;6.30;;
64174;SDS011;50469;50.438;-119.202;2023-10-09T06:10:44;20.90;;;6.53;;
64174;SDS011;50469;50.438;-119.202;2023-10-09T06:13:12;21.70;;;5.72;;
64174;SDS011;50469;50.438;-119.202;2023-10-09T06:15:41;28.58;;;6.05;;
64174;SDS011;50469;50.438;-119.202;2023-10-09T06:18:09;20.45;;;7.38;;
64174;SDS011;50469;50.438;-119.202;2023-10-09T06:20:37;16.98;;;6.22;;
64174;SDS011;50469;50.438;-119.202;2023-10-09T06:23:06;21.83;;;7.82;;
64174;SDS011;50469;50.438;-119.202;2023-10-09T06:25:36;21.60;;;7.32;;
64174;SDS011;50469;50.438;-119.202;2023-10-09T06:28:04;27.08;;;8.25;;
64174;SDS011;50469;50.438;-119.202;2023-10-09T06:30:34;16.05;;;6.70;;
64174;SDS011;50469;50.438;-119.202;2023-10-09T06:33:03;20.25;;;7.80;;
64174;SDS011;50469;50.438;-119.202;2023-10-09T06:35:35;40.63;;;8.13;;
64174;SDS011;50469;50.438;-119.202;2023-10-09T06:38:04;20.20;;;7.00;;
64174;SDS011;50469;50.438;-119.202;2023-10-09T06:40:33;20.27;;;6.22;;
64174;SDS011;50469;50.438;-119.202;2023-10-09T06:43:08;33.10;;;15.30;;
64174;SDS011;50469;50.438;-119.202;2023-10-09T06:45:36;61.85;;;24.08;;
64174;SDS011;50469;50.438;-119.202;2023-10-09T06:48:05;61.45;;;20.00;;
64174;SDS011;50469;50.438;-119.202;2023-10-09T06:50:36;66.72;;;21.17;;
64174;SDS011;50469;50.438;-119.202;2023-10-09T06:53:07;65.85;;;20.60;;
64174;SDS011;50469;50.438;-119.202;2023-10-09T06:55:36;75.18;;;21.15;;
64174;SDS011;50469;50.438;-119.202;2023-10-09T06:58:08;65.75;;;24.27;;
64174;SDS011;50469;50.438;-119.202;2023-10-09T07:00:40;73.72;;;25.27;;
64174;SDS011;50469;50.438;-119.202;2023-10-09T07:03:08;32.08;;;13.18;;
64174;SDS011;50469;50.438;-119.202;2023-10-09T07:05:38;36.38;;;12.80;;
64174;SDS011;50469;50.438;-119.202;2023-10-09T07:08:07;49.40;;;19.70;;
64174;SDS011;50469;50.438;-119.202;2023-10-09T07:10:35;75.53;;;25.58;;
64174;SDS011;50469;50.438;-119.202;2023-10-09T07:13:03;62.60;;;19.70;;
64174;SDS011;50469;50.438;-119.202;2023-10-09T07:15:34;68.30;;;18.77;;
64174;SDS011;50469;50.438;-119.202;2023-10-09T07:18:04;48.70;;;15.57;;
64174;SDS011;50469;50.438;-119.202;2023-10-09T07:20:35;57.72;;;17.92;;
64174;SDS011;50469;50.438;-119.202;2023-10-09T07:23:03;43.63;;;15.60;;
64174;SDS011;50469;50.438;-119.202;2023-10-09T07:25:35;42.90;;;16.48;;
64174;SDS011;50469;50.438;-119.202;2023-10-09T07:28:03;48.53;;;18.15;;
64174;SDS011;50469;50.438;-119.202;2023-10-09T07:30:32;53.88;;;18.30;;
64174;SDS011;50469;50.438;-119.202;2023-10-09T07:33:08;55.25;;;17.08;;
64174;SDS011;50469;50.438;-119.202;2023-10-09T07:35:38;43.40;;;21.30;;
64174;SDS011;50469;50.438;-119.202;2023-10-09T07:38:07;74.10;;;26.52;;
64174;SDS011;50469;50.438;-119.202;2023-10-09T07:40:46;96.07;;;29.38;;
64174;SDS011;50469;50.438;-119.202;2023-10-09T07:43:15;74.97;;;26.75;;
64174;SDS011;50469;50.438;-119.202;2023-10-09T07:45:44;92.97;;;30.35;;
64174;SDS011;50469;50.438;-119.202;2023-10-09T07:48:12;60.28;;;23.70;;
64174;SDS011;50469;50.438;-119.202;2023-10-09T07:50:41;55.95;;;22.38;;
64174;SDS011;50469;50.438;-119.202;2023-10-09T07:53:10;62.67;;;21.05;;
64174;SDS011;50469;50.438;-119.202;2023-10-09T07:55:39;61.90;;;23.35;;
64174;SDS011;50469;50.438;-119.202;2023-10-09T07:58:08;76.93;;;28.67;;
64174;SDS011;50469;50.438;-119.202;2023-10-09T08:00:36;54.85;;;24.25;;
64174;SDS011;50469;50.438;-119.202;2023-10-09T08:03:05;54.88;;;20.85;;
64174;SDS011;50469;50.438;-119.202;2023-10-09T08:05:33;45.80;;;15.75;;
64174;SDS011;50469;50.438;-119.202;2023-10-09T08:08:02;36.10;;;15.43;;
64174;SDS011;50469;50.438;-119.202;2023-10-09T08:10:45;34.05;;;13.93;;
64174;SDS011;50469;50.438;-119.202;2023-10-09T08:13:13;35.70;;;12.85;;
64174;SDS011;50469;50.438;-119.202;2023-10-09T08:15:42;32.47;;;12.90;;
64174;SDS011;50469;50.438;-119.202;2023-10-09T08:18:11;30.33;;;11.82;;
64174;SDS011;50469;50.438;-119.202;2023-10-09T08:20:39;26.17;;;9.60;;
64174;SDS011;50469;50.438;-119.202;2023-10-09T08:23:07;47.03;;;18.98;;
64174;SDS011;50469;50.438;-119.202;2023-10-09T08:25:35;67.03;;;23.52;;
64174;SDS011;50469;50.438;-119.202;2023-10-09T08:28:06;77.82;;;31.63;;
64174;SDS011;50469;50.438;-119.202;2023-10-09T08:30:34;53.22;;;25.05;;
64174;SDS011;50469;50.438;-119.202;2023-10-09T08:33:02;61.30;;;22.02;;
64174;SDS011;50469;50.438;-119.202;2023-10-09T08:35:34;54.40;;;19.42;;
64174;SDS011;50469;50.438;-119.202;2023-10-09T08:38:05;54.35;;;20.40;;
64174;SDS011;50469;50.438;-119.202;2023-10-09T08:40:34;17.33;;;9.10;;
64174;SDS011;50469;50.438;-119.202;2023-10-09T08:43:07;35.10;;;6.53;;
64174;SDS011;50469;50.438;-119.202;2023-10-09T08:48:21;27.13;;;11.25;;
64174;SDS011;50469;50.438;-119.202;2023-10-09T08:50:49;20.92;;;10.82;;
64174;SDS011;50469;50.438;-119.202;2023-10-09T08:53:17;25.15;;;11.63;;
64174;SDS011;50469;50.438;-119.202;2023-10-09T08:55:46;26.77;;;11.98;;
64174;SDS011;50469;50.438;-119.202;2023-10-09T08:58:14;30.58;;;11.23;;
64174;SDS011;50469;50.438;-119.202;2023-10-09T09:00:44;29.85;;;12.27;;
64174;SDS011;50469;50.438;-119.202;2023-10-09T09:03:19;47.38;;;15.90;;
64174;SDS011;50469;50.438;-119.202;2023-10-09T09:05:57;43.13;;;15.00;;
64174;SDS011;50469;50.438;-119.202;2023-10-09T09:08:29;41.67;;;13.23;;
64174;SDS011;50469;50.438;-119.202;2023-10-09T09:11:02;46.15;;;14.73;;
64174;SDS011;50469;50.438;-119.202;2023-10-09T09:16:35;32.08;;;11.93;;
64174;SDS011;50469;50.438;-119.202;2023-10-09T09:19:08;26.42;;;10.88;;
64174;SDS011;50469;50.438;-119.202;2023-10-09T09:21:37;24.45;;;8.55;;
64174;SDS011;50469;50.438;-119.202;2023-10-09T09:24:07;50.75;;;14.23;;
64174;SDS011;50469;50.438;-119.202;2023-10-09T09:26:37;34.45;;;13.60;;
64174;SDS011;50469;50.438;-119.202;2023-10-09T09:29:06;30.30;;;12.23;;
64174;SDS011;50469;50.438;-119.202;2023-10-09T09:31:35;36.80;;;12.60;;
64174;SDS011;50469;50.438;-119.202;2023-10-09T09:34:04;49.95;;;12.93;;
64174;SDS011;50469;50.438;-119.202;2023-10-09T09:36:36;30.10;;;12.35;;
64174;SDS011;50469;50.438;-119.202;2023-10-09T09:39:04;34.53;;;12.63;;
64174;SDS011;50469;50.438;-119.202;2023-10-09T09:41:33;26.58;;;11.18;;
64174;SDS011;50469;50.438;-119.202;2023-10-09T09:44:02;37.55;;;12.70;;
64174;SDS011;50469;50.438;-119.202;2023-10-09T09:46:33;30.95;;;11.90;;
64174;SDS011;50469;50.438;-119.202;2023-10-09T09:49:03;35.40;;;11.27;;
64174;SDS011;50469;50.438;-119.202;2023-10-09T09:51:32;28.15;;;12.38;;
64174;SDS011;50469;50.438;-119.202;2023-10-09T09:54:01;27.42;;;11.25;;
64174;SDS011;50469;50.438;-119.202;2023-10-09T09:56:30;37.72;;;10.90;;
64174;SDS011;50469;50.438;-119.202;2023-10-09T09:59:01;33.97;;;11.60;;
64174;SDS011;50469;50.438;-119.202;2023-10-09T10:01:30;34.45;;;11.75;;
64174;SDS011;50469;50.438;-119.202;2023-10-09T10:04:15;29.85;;;10.30;;
64174;SDS011;50469;50.438;-119.202;2023-10-09T10:06:46;24.60;;;11.60;;
64174;SDS011;50469;50.438;-119.202;2023-10-09T10:09:34;28.35;;;11.02;;
64174;SDS011;50469;50.438;-119.202;2023-10-09T10:12:10;42.67;;;12.77;;
64174;SDS011;50469;50.438;-119.202;2023-10-09T10:17:24;36.97;;;14.13;;
64174;SDS011;50469;50.438;-119.202;2023-10-09T10:22:31;30.65;;;8.80;;
64174;SDS011;50469;50.438;-119.202;2023-10-09T10:24:59;34.97;;;10.00;;
64174;SDS011;50469;50.438;-119.202;2023-10-09T10:27:30;24.63;;;10.80;;
64174;SDS011;50469;50.438;-119.202;2023-10-09T10:35:19;28.52;;;11.30;;
64174;SDS011;50469;50.438;-119.202;2023-10-09T10:37:48;32.65;;;11.15;;
64174;SDS011;50469;50.438;-119.202;2023-10-09T10:40:23;33.22;;;10.02;;
64174;SDS011;50469;50.438;-119.202;2023-10-09T10:42:53;25.63;;;10.20;;
64174;SDS011;50469;50.438;-119.202;2023-10-09T10:45:21;22.55;;;9.50;;
64174;SDS011;50469;50.438;-119.202;2023-10-09T10:47:53;26.08;;;10.50;;
64174;SDS011;50469;50.438;-119.202;2023-10-09T10:50:21;22.63;;;11.32;;
64174;SDS011;50469;50.438;-119.202;2023-10-09T10:52:51;29.92;;;11.20;;
64174;SDS011;50469;50.438;-119.202;2023-10-09T10:55:19;28.27;;;13.90;;
64174;SDS011;50469;50.438;-119.202;2023-10-09T10:57:48;38.63;;;12.95;;
64174;SDS011;50469;50.438;-119.202;2023-10-09T11:00:16;29.50;;;11.93;;
64174;SDS011;50469;50.438;-119.202;2023-10-09T11:02:44;24.13;;;11.88;;
64174;SDS011;50469;50.438;-119.202;2023-10-09T11:05:14;24.33;;;11.35;;
64174;SDS011;50469;50.438;-119.202;2023-10-09T11:07:42;25.90;;;11.75;;
64174;SDS011;50469;50.438;-119.202;2023-10-09T11:10:14;26.13;;;10.93;;
64174;SDS011;50469;50.438;-119.202;2023-10-09T11:12:43;38.67;;;10.80;;
64174;SDS011;50469;50.438;-119.202;2023-10-09T11:15:12;22.27;;;10.63;;
64174;SDS011;50469;50.438;-119.202;2023-10-09T11:17:42;17.02;;;9.27;;
64174;SDS011;50469;50.438;-119.202;2023-10-09T11:20:11;23.67;;;10.30;;
64174;SDS011;50469;50.438;-119.202;2023-10-09T11:22:41;31.95;;;12.63;;
64174;SDS011;50469;50.438;-119.202;2023-10-09T11:25:12;31.63;;;11.13;;
64174;SDS011;50469;50.438;-119.202;2023-10-09T11:27:40;20.83;;;10.45;;
64174;SDS011;50469;50.438;-119.202;2023-10-09T11:30:09;27.15;;;10.23;;
64174;SDS011;50469;50.438;-119.202;2023-10-09T11:32:37;23.65;;;8.60;;
64174;SDS011;50469;50.438;-119.202;2023-10-09T11:35:10;24.17;;;9.93;;
64174;SDS011;50469;50.438;-119.202;2023-10-09T11:37:42;29.77;;;9.40;;
64174;SDS011;50469;50.438;-119.202;2023-10-09T11:42:59;23.08;;;9.55;;
64174;SDS011;50469;50.438;-119.202;2023-10-09T11:45:29;20.67;;;10.18;;
64174;SDS011;50469;50.438;-119.202;2023-10-09T11:47:58;28.77;;;11.63;;
64174;SDS011;50469;50.438;-119.202;2023-10-09T11:50:46;29.65;;;9.35;;
64174;SDS011;50469;50.438;-119.202;2023-10-09T11:53:15;24.02;;;8.98;;
64174;SDS011;50469;50.438;-119.202;2023-10-09T11:55:46;17.35;;;8.77;;
64174;SDS011;50469;50.438;-119.202;2023-10-09T11:58:15;23.80;;;8.32;;
64174;SDS011;50469;50.438;-119.202;2023-10-09T12:00:44;19.88;;;8.85;;
64174;SDS011;50469;50.438;-119.202;2023-10-09T12:03:13;19.02;;;8.82;;
64174;SDS011;50469;50.438;-119.202;2023-10-09T12:05:41;19.88;;;8.43;;
64174;SDS011;50469;50.438;-119.202;2023-10-09T12:08:12;19.75;;;8.68;;
64174;SDS011;50469;50.438;-119.202;2023-10-09T12:10:41;22.55;;;9.25;;
64174;SDS011;50469;50.438;-119.202;2023-10-09T12:13:10;16.80;;;8.73;;
64174;SDS011;50469;50.438;-119.202;2023-10-09T12:15:38;23.10;;;10.18;;
64174;SDS011;50469;50.438;-119.202;2023-10-09T12:18:07;18.00;;;8.10;;
64174;SDS011;50469;50.438;-119.202;2023-10-09T12:20:41;22.73;;;10.75;;
64174;SDS011;50469;50.438;-119.202;2023-10-09T12:23:10;21.65;;;9.73;;
64174;SDS011;50469;50.438;-119.202;2023-10-09T12:25:38;20.80;;;9.52;;
64174;SDS011;50469;50.438;-119.202;2023-10-09T12:28:06;25.02;;;9.70;;
64174;SDS011;50469;50.438;-119.202;2023-10-09T12:30:35;21.58;;;9.25;;
64174;SDS011;50469;50.438;-119.202;2023-10-09T12:33:03;21.95;;;9.00;;
64174;SDS011;50469;50.438;-119.202;2023-10-09T12:35:35;29.45;;;9.73;;
64174;SDS011;50469;50.438;-119.202;2023-10-09T12:38:07;16.70;;;8.88;;
64174;SDS011;50469;50.438;-119.202;2023-10-09T12:40:36;21.65;;;8.80;;
64174;SDS011;50469;50.438;-119.202;2023-10-09T12:43:05;28.02;;;10.70;;
64174;SDS011;50469;50.438;-119.202;2023-10-09T12:45:36;21.83;;;9.38;;
64174;SDS011;50469;50.438;-119.202;2023-10-09T12:48:07;22.63;;;9.73;;
64174;SDS011;50469;50.438;-119.202;2023-10-09T12:50:36;40.45;;;11.00;;
64174;SDS011;50469;50.438;-119.202;2023-10-09T12:53:05;38.05;;;9.70;;
64174;SDS011;50469;50.438;-119.202;2023-10-09T12:55:37;21.15;;;11.00;;
64174;SDS011;50469;50.438;-119.202;2023-10-09T12:58:07;23.25;;;10.07;;
64174;SDS011;50469;50.438;-119.202;2023-10-09T13:00:36;25.45;;;9.52;;
64174;SDS011;50469;50.438;-119.202;2023-10-09T13:03:06;27.48;;;8.80;;
64174;SDS011;50469;50.438;-119.202;2023-10-09T13:05:34;25.52;;;10.27;;
64174;SDS011;50469;50.438;-119.202;2023-10-09T13:08:05;26.63;;;10.25;;
64174;SDS011;50469;50.438;-119.202;2023-10-09T13:10:37;35.53;;;10.18;;
64174;SDS011;50469;50.438;-119.202;2023-10-09T13:13:05;25.23;;;10.77;;
64174;SDS011;50469;50.438;-119.202;2023-10-09T13:15:36;25.55;;;9.18;;
64174;SDS011;50469;50.438;-119.202;2023-10-09T13:18:04;16.25;;;8.32;;
64174;SDS011;50469;50.438;-119.202;2023-10-09T13:20:35;28.48;;;8.82;;
64174;SDS011;50469;50.438;-119.202;2023-10-09T13:23:03;12.80;;;7.50;;
64174;SDS011;50469;50.438;-119.202;2023-10-09T13:25:33;15.25;;;6.90;;
64174;SDS011;50469;50.438;-119.202;2023-10-09T13:28:01;30.10;;;15.30;;
64174;SDS011;50469;50.438;-119.202;2023-10-09T13:30:31;18.88;;;9.63;;
64174;SDS011;50469;50.438;-119.202;2023-10-09T13:33:00;17.48;;;9.40;;
64174;SDS011;50469;50.438;-119.202;2023-10-09T13:35:28;30.10;;;11.55;;
64174;SDS011;50469;50.438;-119.202;2023-10-09T13:37:56;41.13;;;11.23;;
64174;SDS011;50469;50.438;-119.202;2023-10-09T13:40:24;29.13;;;11.75;;
64174;SDS011;50469;50.438;-119.202;2023-10-09T13:42:53;29.80;;;12.63;;
64174;SDS011;50469;50.438;-119.202;2023-10-09T13:45:24;25.20;;;10.50;;
64174;SDS011;50469;50.438;-119.202;2023-10-09T13:47:55;38.30;;;11.15;;
64174;SDS011;50469;50.438;-119.202;2023-10-09T13:50:26;37.22;;;13.13;;
64174;SDS011;50469;50.438;-119.202;2023-10-09T13:52:56;21.35;;;11.10;;
64174;SDS011;50469;50.438;-119.202;2023-10-09T13:55:26;19.52;;;9.35;;
64174;SDS011;50469;50.438;-119.202;2023-10-09T13:57:54;27.33;;;9.93;;
64174;SDS011;50469;50.438;-119.202;2023-10-09T14:00:23;22.63;;;10.55;;
64174;SDS011;50469;50.438;-119.202;2023-10-09T14:02:52;26.20;;;11.13;;
64174;SDS011;50469;50.438;-119.202;2023-10-09T14:05:21;30.80;;;10.48;;
64174;SDS011;50469;50.438;-119.202;2023-10-09T14:07:50;19.83;;;8.88;;
64174;SDS011;50469;50.438;-119.202;2023-10-09T14:10:19;36.15;;;17.50;;
64174;SDS011;50469;50.438;-119.202;2023-10-09T14:12:47;21.52;;;9.65;;
64174;SDS011;50469;50.438;-119.202;2023-10-09T14:15:15;24.92;;;10.60;;
64174;SDS011;50469;50.438;-119.202;2023-10-09T14:17:44;25.80;;;11.43;;
64174;SDS011;50469;50.438;-119.202;2023-10-09T14:20:13;23.65;;;9.77;;